Flight Track Log - Related Links

Times and Time Zones

All times are in EDT time to prevent confusion due to time zone crossing. See the CTL14 flight status page for this flight to view local times or setup timezone preferences in your user account.

Time Position Orientation Groundspeed Altitude Reporting Facility
EDT Latitude Longitude Course Direction KTS MPH feet Rate Location/Type
Mon 11:39:12 PM 40.5222 -88.8719 20° North 142 163 2,600  Level Chicago Center
Mon 11:40:12 PM 40.5650 -88.8514 20° North 161 185 3,800 1,041 Climbing Chicago Center
Mon 11:41:13 PM 40.6086 -88.8386 13° North 153 176 4,700 836 Climbing Chicago Center
Mon 11:42:14 PM 40.6497 -88.8308 North 149 171 5,500 738 Climbing Chicago Center
Mon 11:43:15 PM 40.6914 -88.8206 11° North 152 175 6,200 645 Climbing Chicago Center
Mon 11:44:15 PM 40.7336 -88.8097 11° North 155 178 6,800 397 Climbing Chicago Center
Mon 11:45:16 PM 40.7772 -88.7992 10° North 157 181 7,000 98 Climbing Chicago Center
Mon 11:46:17 PM 40.8258 -88.7881 10° North 172 198 7,000  Level Chicago Center
Mon 11:47:17 PM 40.8750 -88.7764 10° North 178 205 7,000  Level Chicago Center
Mon 11:48:18 PM 40.9231 -88.7642 11° North 178 205 7,000 -49 Level Chicago Center
Mon 11:49:19 PM 40.9836 -88.7503 10° North 183 211 6,900 -50 Descending Chicago Center
Mon 11:50:19 PM 41.0347 -88.7397 North 185 213 6,900 50 Level Chicago Center
Mon 11:51:20 PM 41.0833 -88.7283 10° North 182 209 7,000 49 Climbing Chicago Center
Mon 11:52:21 PM 41.1319 -88.7181 North 179 206 7,000  Level Chicago Center
Mon 11:53:21 PM 41.1811 -88.7078 North 179 206 7,000 -248 Level Chicago Center
Mon 11:54:22 PM 41.2328 -88.6956 10° North 186 214 6,500 -393 Descending Chicago Center
Mon 11:55:23 PM 41.2881 -88.6850 North 197 227 6,200 -298 Descending Chicago Center
Mon 11:56:23 PM 41.3414 -88.6756 North 196 226 5,900 -99 Descending Chicago Center
Mon 11:57:24 PM 41.3944 -88.6650 North 194 223 6,000  Climbing Chicago Center
Mon 11:58:24 PM 41.4450 -88.6578 North 187 215 5,900 -50 Descending Chicago Center
Mon 11:59:25 PM 41.4958 -88.6447 11° North 187 215 5,900  Level Chicago Center
Tue 12:00:25 AM 41.5464 -88.6303 12° North 187 215 5,900  Level Chicago Center
Tue 12:01:26 AM 41.5978 -88.6183 10° North 188 216 5,900 -246 Level Chicago Center
Tue 12:02:27 AM 41.6458 -88.5886 25° Northeast 201 231 5,400 -545 Descending Chicago Center
Tue 12:03:27 AM 41.6922 -88.5378 39° Northeast 215 247 4,800 -645 Descending Chicago Center
Tue 12:04:28 AM 41.7378 -88.4894 38° Northeast 212 244 4,100 -397 Descending Chicago Center
Tue 12:05:28 AM 41.7839 -88.4392 39° Northeast 212 244 4,000 -50 Descending Chicago Center
Tue 12:06:29 AM 41.8294 -88.3939 37° Northeast 209 241 4,000  Level Chicago Center
Tue 12:07:29 AM 41.8894 -88.3725 15° North 201 231 4,000  Level Chicago Center
Tue 12:08:30 AM 41.9344 -88.3269 37° Northeast 202 232 4,000 -50 Level Chicago Center
Tue 12:09:30 AM 41.9792 -88.2839 36° Northeast 201 231 3,900 -298 Descending Chicago Center
Tue 12:10:31 AM 42.0244 -88.2383 37° Northeast 201 231 3,400 -595 Descending Chicago Center
Tue 12:11:31 AM 42.0736 -88.1883 37° Northeast 209 241 2,700 -446 Descending Chicago Center
Tue 12:12:32 AM 42.1222 -88.1394 37° Northeast 215 247 2,500 -197 Descending Chicago Center

Login

Don't have an account? Register now (free) for customized features, flight alerts, and more!